Time;durP1;ratioP1;P1;durP2;ratioP2;P2;SDS_P1;SDS_P2;PMS_P1;PMS_P2;Temp;Humidity;BMP_temperature;BMP_pressure;BME280_temperature;BME280_humidity;BME280_pressure;Samples;Min_cycle;Max_cycle;Signal;HPM_P1;HPM_P2
2023/01/22 00:02:18;;;;;;;40.78;21.50;;;-0.90;99.90;;;-2.30;100.00;98023.28;5071897;28;20398;-77
2023/01/22 00:04:44;;;;;;;40.30;21.92;;;-0.90;99.90;;;-2.31;100.00;98016.47;5074505;22;20418;-80
2023/01/22 00:07:10;;;;;;;38.17;20.02;;;-0.80;99.90;;;-2.31;100.00;98008.69;5051386;28;20504;-80
2023/01/22 00:09:36;;;;;;;39.00;20.70;;;-0.90;99.90;;;-2.30;100.00;98007.72;5033426;28;20818;-80
2023/01/22 00:12:02;;;;;;;36.67;20.23;;;-0.90;99.90;;;-2.30;100.00;98007.72;5051106;28;20401;-80
2023/01/22 00:14:28;;;;;;;38.38;20.50;;;-0.90;99.90;;;-2.31;100.00;98011.28;5050728;28;20555;-80
2023/01/22 00:16:54;;;;;;;33.72;17.58;;;-0.90;99.90;;;-2.32;100.00;98001.88;5051110;28;20954;-80
2023/01/22 00:19:21;;;;;;;37.22;19.88;;;-0.90;99.90;;;-2.32;100.00;97994.09;5051063;28;20407;-80
2023/01/22 00:21:47;;;;;;;41.92;21.58;;;-0.90;99.90;;;-2.32;100.00;97994.09;5050787;28;20492;-80
2023/01/22 00:24:13;;;;;;;38.65;21.05;;;-0.90;99.90;;;-2.33;100.00;97995.88;5050368;28;20500;-80
2023/01/22 00:26:39;;;;;;;38.13;19.02;;;-0.90;99.90;;;-2.33;100.00;97989.09;5050814;28;20405;-80
2023/01/22 00:29:05;;;;;;;34.58;18.60;;;-0.90;99.90;;;-2.31;100.00;97994.91;5050747;28;20492;-81
2023/01/22 00:31:31;;;;;;;35.70;18.58;;;-0.90;99.90;;;-2.31;100.00;97995.72;5050465;28;20828;-80
2023/01/22 00:33:57;;;;;;;31.08;17.27;;;-0.90;99.90;;;-2.29;100.00;97991.22;5050390;28;20426;-80
2023/01/22 00:36:24;;;;;;;35.45;18.60;;;-0.80;99.90;;;-2.26;100.00;97987.50;5050759;28;20459;-80
2023/01/22 00:38:50;;;;;;;38.53;19.83;;;-0.80;99.90;;;-2.25;100.00;97978.72;5050807;28;20413;-80
2023/01/22 00:41:18;;;;;;;36.03;18.80;;;-0.80;99.90;;;-2.25;100.00;97987.31;5050593;28;20409;-80
2023/01/22 00:43:44;;;;;;;39.33;20.08;;;-0.80;99.90;;;-2.25;100.00;97979.53;5050264;28;20420;-80
2023/01/22 00:46:13;;;;;;;38.87;18.80;;;-0.80;99.90;;;-2.23;100.00;97987.97;5050598;28;20441;-80
2023/01/22 00:48:39;;;;;;;38.25;20.08;;;-0.80;99.90;;;-2.23;100.00;97985.38;5050611;28;20927;-80
2023/01/22 00:51:09;;;;;;;35.42;18.95;;;-0.80;99.90;;;-2.23;100.00;97984.56;5050221;28;20435;-80
2023/01/22 00:53:36;;;;;;;53.13;26.15;;;-0.80;99.90;;;-2.22;100.00;97984.44;5050381;28;20413;-80
2023/01/22 00:56:03;;;;;;;44.65;23.05;;;-0.80;99.90;;;-2.22;100.00;97975.84;5050560;28;20405;-80
2023/01/22 00:58:29;;;;;;;36.67;20.13;;;-0.80;99.90;;;-2.21;100.00;97985.25;5050558;28;20409;-80
2023/01/22 01:00:55;;;;;;;48.70;24.67;;;-0.80;99.90;;;-2.21;100.00;97978.28;5050589;28;20391;-80
2023/01/22 01:03:29;;;;;;;40.15;20.42;;;-0.80;99.90;;;-2.21;100.00;97987.84;5050170;28;20401;-80
2023/01/22 01:05:58;;;;;;;42.60;22.23;;;-0.80;99.90;;;-2.21;100.00;97977.47;5050586;28;20393;-80
2023/01/22 01:08:25;;;;;;;35.55;19.55;;;-0.80;99.90;;;-2.22;100.00;97989.63;5050339;28;20402;-80
2023/01/22 01:10:55;;;;;;;53.97;27.70;;;-0.80;99.90;;;-2.22;100.00;97986.22;5050354;28;20409;-80
2023/01/22 01:13:21;;;;;;;56.92;28.25;;;-0.80;99.90;;;-2.22;100.00;97981.03;5049945;28;20417;-80
2023/01/22 01:15:47;;;;;;;46.28;24.25;;;-0.80;99.90;;;-2.25;100.00;97982.13;5050330;28;20394;-80
2023/01/22 01:18:13;;;;;;;41.55;22.88;;;-0.80;99.90;;;-2.22;100.00;97983.63;5050401;28;20404;-80
2023/01/22 01:20:39;;;;;;;36.50;19.48;;;-0.80;99.90;;;-2.22;100.00;97989.63;5050387;28;20401;-80
2023/01/22 01:23:05;;;;;;;39.42;21.70;;;-0.80;99.90;;;-2.21;100.00;97982.66;5032059;28;20406;-79
2023/01/22 01:25:31;;;;;;;34.37;18.63;;;-0.80;99.90;;;-2.20;100.00;97990.28;5050330;28;20887;-79
2023/01/22 01:27:59;;;;;;;41.65;22.90;;;-0.80;99.90;;;-2.18;100.00;97992.72;5050449;28;20970;-80
2023/01/22 01:30:25;;;;;;;44.07;22.00;;;-0.70;99.90;;;-2.19;100.00;97986.72;5049993;28;20426;-79
2023/01/22 01:32:50;;;;;;;36.70;20.38;;;-0.70;99.90;;;-2.17;100.00;97989.94;5049966;28;20843;-80
2023/01/22 01:35:18;;;;;;;44.63;23.13;;;-0.70;99.90;;;-2.16;100.00;97975.19;5050321;28;20539;-79
2023/01/22 01:37:44;;;;;;;35.58;20.05;;;-0.70;99.90;;;-2.16;100.00;97975.19;5054431;28;20440;-80
2023/01/22 01:40:11;;;;;;;28.73;17.17;;;-0.70;99.90;;;-2.14;100.00;97987.06;5054360;28;20410;-80
2023/01/22 01:42:40;;;;;;;26.73;14.00;;;-0.70;99.90;;;-2.12;100.00;97985.13;5054265;28;20405;-80
2023/01/22 01:45:27;;;;;;;34.53;19.45;;;-0.70;99.90;;;-2.11;100.00;97980.75;5054205;28;20400;-80
2023/01/22 01:48:06;;;;;;;33.15;19.48;;;-0.70;99.90;;;-2.12;100.00;97985.13;5052884;28;20402;-80
2023/01/22 01:50:32;;;;;;;38.78;20.70;;;-0.70;99.90;;;-2.11;100.00;97978.16;5054086;28;21025;-80
2023/01/22 01:52:59;;;;;;;33.08;18.35;;;-0.70;99.90;;;-2.11;100.00;97978.97;5053659;28;20409;-79
2023/01/22 01:55:29;;;;;;;32.40;17.75;;;-0.70;99.90;;;-2.09;100.00;97977.00;5053804;28;20563;-80
2023/01/22 01:57:58;;;;;;;38.13;20.40;;;-0.70;99.90;;;-2.10;100.00;97979.75;5053972;28;20421;-80
2023/01/22 02:00:29;;;;;;;29.48;16.60;;;-0.70;99.90;;;-2.11;100.00;97976.38;5053674;28;20416;-80
2023/01/22 02:02:56;;;;;;;24.27;14.63;;;-0.70;99.90;;;-2.09;100.00;97979.59;5053574;28;20539;-80
2023/01/22 02:05:24;;;;;;;34.55;19.25;;;-0.70;99.90;;;-2.07;100.00;97975.09;5035633;28;20909;-79
2023/01/22 02:07:50;;;;;;;24.17;14.55;;;-0.60;99.90;;;-2.07;100.00;97969.91;5052405;28;20474;-80
2023/01/22 02:10:16;;;;;;;28.15;16.42;;;-0.60;99.90;;;-2.05;100.00;97974.94;5053522;28;20405;-80
2023/01/22 02:12:42;;;;;;;27.67;16.02;;;-0.60;99.90;;;-2.05;100.00;97972.34;5053089;28;20409;-78
2023/01/22 02:15:09;;;;;;;35.60;18.88;;;-0.60;99.90;;;-2.05;100.00;97969.75;5053167;28;20413;-80
2023/01/22 02:17:36;;;;;;;28.60;16.60;;;-0.60;99.90;;;-2.04;100.00;97971.38;5053444;28;20451;-79
2023/01/22 02:20:03;;;;;;;34.40;19.30;;;-0.60;99.90;;;-2.03;100.00;97970.41;5053341;28;20738;-80
2023/01/22 02:22:34;;;;;;;32.43;18.57;;;-0.60;99.90;;;-2.04;100.00;97968.78;5053052;28;20460;-80
2023/01/22 02:25:01;;;;;;;30.80;17.83;;;-0.60;99.90;;;-2.03;100.00;97970.41;5053058;28;20496;-79
2023/01/22 02:27:27;;;;;;;40.40;21.52;;;-0.60;99.90;;;-2.04;100.00;97966.19;5053169;28;20443;-79
2023/01/22 02:29:53;;;;;;;24.83;14.40;;;-0.60;99.90;;;-2.03;100.00;97963.41;5053025;28;20402;-80
2023/01/22 02:32:19;;;;;;;20.73;12.60;;;-0.60;99.90;;;-2.03;100.00;97966.00;5052625;28;20401;-80
2023/01/22 02:34:45;;;;;;;31.73;17.38;;;-0.60;99.90;;;-2.01;100.00;97969.25;5051439;28;20421;-79
2023/01/22 02:37:11;;;;;;;41.97;22.45;;;-0.60;99.90;;;-2.02;100.00;97965.03;5052855;28;20401;-79
2023/01/22 02:39:38;;;;;;;32.35;19.13;;;-0.60;99.90;;;-2.02;100.00;97962.44;5052928;28;20767;-80
2023/01/22 02:42:06;;;;;;;35.38;19.75;;;-0.60;99.90;;;-2.03;100.00;97960.81;5052709;28;20496;-79
2023/01/22 02:44:32;;;;;;;32.78;17.67;;;-0.60;99.90;;;-2.02;100.00;97961.63;5052665;28;20397;-79
2023/01/22 02:46:58;;;;;;;26.45;15.10;;;-0.60;99.90;;;-2.02;100.00;97961.63;5052851;28;20405;-79
2023/01/22 02:49:24;;;;;;;35.92;20.70;;;-0.60;99.90;;;-2.01;100.00;97966.66;5052952;28;20397;-79
2023/01/22 02:51:50;;;;;;;29.23;16.67;;;-0.60;99.90;;;-2.01;100.00;97971.03;5052722;28;20495;-79
2023/01/22 02:54:16;;;;;;;34.67;19.48;;;-0.60;99.90;;;-2.01;100.00;97971.84;5052706;28;20847;-79
2023/01/22 02:56:43;;;;;;;43.33;22.73;;;-0.60;99.90;;;-2.00;100.00;97967.47;5052762;28;20401;-79
2023/01/22 02:59:09;;;;;;;28.13;16.02;;;-0.60;99.90;;;-2.01;100.00;97966.66;5052723;28;20462;-80
2023/01/22 03:01:35;;;;;;;20.85;12.40;;;-0.60;99.90;;;-2.00;100.00;97965.72;5052650;28;20475;-79
2023/01/22 03:04:09;;;;;;;21.00;12.68;;;-0.60;99.90;;;-1.99;100.00;97975.13;5052350;28;20437;-80
2023/01/22 03:06:37;;;;;;;18.02;10.30;;;-0.50;99.90;;;-1.97;100.00;97970.59;5052579;28;20894;-79
2023/01/22 03:09:03;;;;;;;23.30;14.23;;;-0.50;99.90;;;-1.96;100.00;97964.44;5052543;28;20488;-80
2023/01/22 03:11:32;;;;;;;29.05;16.42;;;-0.60;99.90;;;-1.95;100.00;97957.44;5052410;28;20486;-80
2023/01/22 03:22:14;;;;;;;35.00;18.77;;;-0.50;99.90;;;-1.96;100.00;97948.88;5052288;28;20478;-79
2023/01/22 03:24:40;;;;;;;26.42;15.48;;;-0.50;99.90;;;-1.94;100.00;97953.88;5052137;28;20397;-80
2023/01/22 03:27:06;;;;;;;32.08;17.70;;;-0.50;99.90;;;-1.95;100.00;97957.44;5052279;28;20486;-79
2023/01/22 03:29:37;;;;;;;29.45;16.60;;;-0.50;99.90;;;-1.94;100.00;97959.06;5052093;28;20405;-79
2023/01/22 03:32:03;;;;;;;30.60;17.08;;;-0.50;99.90;;;-1.93;100.00;97957.28;5051976;28;20446;-80
2023/01/22 03:34:29;;;;;;;29.55;15.07;;;-0.50;99.90;;;-1.93;100.00;97958.09;5051849;28;20421;-80
2023/01/22 03:36:55;;;;;;;27.05;15.88;;;-0.50;99.90;;;-1.92;100.00;97964.91;5052138;28;20938;-80
2023/01/22 03:39:21;;;;;;;33.53;18.83;;;-0.50;99.90;;;-1.92;100.00;97962.31;5051995;28;20480;-80
2023/01/22 03:41:47;;;;;;;31.23;17.98;;;-0.50;99.90;;;-1.92;100.00;97957.13;5051686;28;20492;-80
2023/01/22 03:44:13;;;;;;;26.90;15.55;;;-0.50;99.90;;;-1.92;100.00;97958.91;5051597;28;20492;-78
2023/01/22 03:46:40;;;;;;;28.90;15.73;;;-0.50;99.90;;;-1.92;100.00;97956.31;5051936;28;20423;-80
2023/01/22 03:49:07;;;;;;;32.58;17.00;;;-0.50;99.90;;;-1.92;100.00;97961.50;5051779;28;20446;-79
2023/01/22 03:51:33;;;;;;;38.00;21.35;;;-0.50;99.90;;;-1.92;100.00;97959.72;5051690;28;20952;-80
2023/01/22 03:53:59;;;;;;;36.00;19.63;;;-0.50;99.90;;;-1.92;100.00;97957.13;5051466;28;20459;-80
2023/01/22 03:56:26;;;;;;;30.50;17.83;;;-0.50;99.90;;;-1.91;100.00;97957.94;5050291;28;20413;-80
2023/01/22 03:58:52;;;;;;;23.73;14.13;;;-0.50;99.90;;;-1.91;100.00;97961.34;5050769;28;20405;-80
2023/01/22 04:01:21;;;;;;;22.02;13.23;;;-0.50;99.90;;;-1.91;100.00;97966.53;5051495;28;20401;-80
2023/01/22 04:03:50;;;;;;;37.58;20.10;;;-0.50;99.90;;;-1.89;100.00;97962.00;5051113;28;20798;-80
2023/01/22 04:06:17;;;;;;;23.88;14.10;;;-0.50;99.90;;;-1.89;100.00;97967.22;5051666;28;20397;-79
2023/01/22 04:08:45;;;;;;;21.95;13.20;;;-0.50;99.90;;;-1.88;100.00;97955.06;5051669;28;20463;-80
2023/01/22 04:11:12;;;;;;;27.77;16.52;;;-0.50;99.90;;;-1.88;100.00;97961.03;5051089;28;20421;-80
2023/01/22 04:13:40;;;;;;;28.17;14.93;;;-0.50;99.90;;;-1.87;100.00;97957.47;5050843;28;20409;-80
2023/01/22 04:16:07;;;;;;;23.83;13.93;;;-0.50;99.90;;;-1.86;100.00;97961.69;5051415;28;20397;-80
2023/01/22 04:18:33;;;;;;;26.08;15.73;;;-0.50;99.90;;;-1.86;100.00;97971.25;5051479;28;20401;-80
2023/01/22 04:21:01;;;;;;;31.17;17.23;;;-0.50;99.90;;;-1.86;100.00;97961.69;5049963;28;20992;-79
2023/01/22 04:23:27;;;;;;;30.73;17.38;;;-0.40;99.90;;;-1.86;100.00;97958.28;5050705;28;20773;-80
2023/01/22 04:25:53;;;;;;;29.55;17.08;;;-0.50;99.90;;;-1.87;100.00;97967.03;5051103;28;20405;-80
2023/01/22 04:28:19;;;;;;;32.50;18.45;;;-0.50;99.90;;;-1.87;100.00;97961.84;5050990;28;20402;-79
2023/01/22 04:30:48;;;;;;;44.53;23.00;;;-0.50;99.90;;;-1.88;100.00;97963.63;5050783;28;20405;-80
2023/01/22 04:33:14;;;;;;;42.20;22.23;;;-0.50;99.90;;;-1.89;100.00;97956.81;5050439;28;20405;-80
2023/01/22 04:35:41;;;;;;;50.15;25.70;;;-0.50;99.90;;;-1.89;100.00;97959.44;5050707;28;20515;-79
2023/01/22 04:38:12;;;;;;;48.85;25.50;;;-0.50;99.90;;;-1.89;100.00;97966.38;5050867;28;20483;-80
2023/01/22 04:40:38;;;;;;;43.28;23.35;;;-0.50;99.90;;;-1.91;100.00;97966.53;5050716;28;20460;-80
2023/01/22 04:43:06;;;;;;;33.35;18.90;;;-0.50;99.90;;;-1.91;100.00;97963.94;5050432;28;20397;-80
2023/01/22 04:45:33;;;;;;;28.35;16.48;;;-0.50;99.90;;;-1.89;100.00;97967.22;5049459;28;20752;-80
2023/01/22 04:47:59;;;;;;;28.70;14.60;;;-0.50;99.90;;;-1.89;100.00;97967.22;5050614;28;20499;-79
2023/01/22 04:50:27;;;;;;;20.70;12.73;;;-0.50;99.90;;;-1.88;100.00;97971.41;5050706;28;20960;-80
2023/01/22 04:52:55;;;;;;;32.65;16.92;;;-0.50;99.90;;;-1.86;100.00;97971.25;5050323;28;20899;-80
2023/01/22 04:55:23;;;;;;;29.38;16.23;;;-0.40;99.90;;;-1.86;100.00;97966.88;5049862;28;20461;-79
2023/01/22 04:57:49;;;;;;;31.95;16.80;;;-0.50;99.90;;;-1.86;100.00;97971.25;5046985;28;20832;-77
2023/01/22 05:00:17;;;;;;;24.10;13.60;;;-0.40;99.90;;;-1.86;100.00;97976.44;5041255;28;20413;-77
2023/01/22 05:02:43;;;;;;;20.67;11.20;;;-0.40;99.90;;;-1.84;100.00;97977.91;5048040;28;20462;-77
2023/01/22 05:05:09;;;;;;;21.50;12.45;;;-0.40;99.90;;;-1.82;100.00;97980.34;5049857;28;20504;-76
2023/01/22 05:07:35;;;;;;;21.92;12.90;;;-0.40;99.90;;;-1.83;100.00;97987.31;5050135;28;20397;-77
2023/01/22 05:10:01;;;;;;;32.43;15.93;;;-0.40;99.90;;;-1.81;100.00;97984.56;5049282;28;20405;-76
2023/01/22 05:12:29;;;;;;;26.65;14.07;;;-0.40;99.90;;;-1.80;100.00;97986.19;5049797;28;20440;-78
2023/01/22 05:14:55;;;;;;;21.90;12.73;;;-0.40;99.90;;;-1.80;100.00;97992.19;5057844;28;20423;-77
2023/01/22 05:17:21;;;;;;;26.35;14.88;;;-0.40;99.90;;;-1.79;100.00;97990.41;5049294;28;20873;-77
2023/01/22 05:19:47;;;;;;;66.95;30.45;;;-0.40;99.90;;;-1.81;100.00;97995.78;5046859;28;20417;-78
2023/01/22 05:22:13;;;;;;;48.22;25.42;;;-0.40;99.90;;;-1.81;100.00;98003.56;5045101;28;20413;-77
2023/01/22 05:24:39;;;;;;;39.28;21.00;;;-0.40;99.90;;;-1.81;100.00;98007.94;5061193;28;20400;-76
2023/01/22 05:27:05;;;;;;;29.85;16.27;;;-0.40;99.90;;;-1.82;100.00;98007.13;5047745;28;20454;-78
2023/01/22 05:29:32;;;;;;;24.20;13.20;;;-0.40;99.90;;;-1.81;100.00;98007.94;5059508;28;20414;-77
2023/01/22 05:31:58;;;;;;;19.98;11.40;;;-0.40;99.90;;;-1.80;100.00;97999.97;5061080;28;20443;-77
2023/01/22 05:34:24;;;;;;;17.35;10.02;;;-0.40;99.90;;;-1.80;100.00;97999.97;5059695;28;20499;-77
2023/01/22 05:36:51;;;;;;;23.05;12.18;;;-0.40;99.90;;;-1.77;100.00;98009.22;5050030;28;20401;-77
2023/01/22 05:39:17;;;;;;;31.88;17.30;;;-0.40;99.90;;;-1.78;100.00;98002.41;5049867;28;20952;-78
2023/01/22 05:41:43;;;;;;;28.92;15.73;;;-0.40;99.90;;;-1.78;100.00;98005.00;5049698;28;20401;-79
2023/01/22 05:44:10;;;;;;;27.88;13.95;;;-0.40;99.90;;;-1.79;100.00;98009.38;5049664;28;20450;-78
2023/01/22 05:46:38;;;;;;;24.50;13.30;;;-0.40;99.90;;;-1.77;100.00;98011.81;5027090;28;20408;-77
2023/01/22 05:49:04;;;;;;;24.65;13.25;;;-0.40;99.90;;;-1.77;100.00;98012.63;5040769;28;20436;-78
2023/01/22 05:51:30;;;;;;;19.73;11.37;;;-0.30;99.90;;;-1.77;100.00;98017.81;5041222;28;20401;-77
2023/01/22 05:53:56;;;;;;;16.13;9.63;;;-0.40;99.90;;;-1.76;100.00;98011.66;5047069;28;20416;-76
2023/01/22 05:56:22;;;;;;;13.73;8.23;;;-0.30;99.90;;;-1.75;100.00;98021.09;5040831;28;20410;-78
2023/01/22 05:58:49;;;;;;;14.38;8.88;;;-0.30;99.90;;;-1.73;100.00;98010.56;5041350;28;20501;-77
2023/01/22 06:01:15;;;;;;;16.05;9.48;;;-0.40;99.90;;;-1.74;100.00;98024.50;5036009;28;20843;-78
2023/01/22 06:03:42;;;;;;;14.80;9.10;;;-0.40;99.90;;;-1.73;100.00;98021.72;5056407;22;20442;-75
2023/01/22 06:06:12;;;;;;;15.10;8.68;;;-0.30;99.90;;;-1.72;100.00;98022.53;5045871;28;20906;-75
2023/01/22 06:08:38;;;;;;;14.77;8.48;;;-0.40;99.90;;;-1.73;100.00;98015.75;5046162;28;20415;-77
2023/01/22 06:11:07;;;;;;;21.77;11.82;;;-0.30;99.90;;;-1.72;100.00;98028.53;5038113;28;20411;-75
2023/01/22 06:13:33;;;;;;;19.73;10.55;;;-0.30;99.90;;;-1.72;100.00;98027.72;5040054;28;20518;-77
2023/01/22 06:16:00;;;;;;;20.40;11.35;;;-0.30;99.90;;;-1.72;100.00;98028.53;5038503;28;20871;-75
2023/01/22 06:18:26;;;;;;;17.20;9.85;;;-0.30;99.90;;;-1.73;100.00;98029.50;5040187;28;20406;-76
2023/01/22 06:20:57;;;;;;;19.25;10.40;;;-0.30;99.90;;;-1.73;100.00;98029.50;5040387;28;20403;-79
2023/01/22 06:23:25;;;;;;;16.42;9.60;;;-0.30;99.90;;;-1.72;100.00;98035.50;5045001;28;20408;-78
2023/01/22 06:25:53;;;;;;;18.67;10.60;;;-0.30;99.90;;;-1.71;100.00;98034.53;5045604;28;20401;-79
2023/01/22 06:28:19;;;;;;;27.83;14.25;;;-0.30;99.90;;;-1.70;100.00;98038.75;5045753;28;20407;-78
2023/01/22 06:30:45;;;;;;;29.88;14.85;;;-0.30;99.90;;;-1.72;100.00;98038.91;5043326;28;20415;-79
2023/01/22 06:33:11;;;;;;;20.20;11.30;;;-0.30;99.90;;;-1.70;100.00;98038.75;5048324;28;20398;-78
2023/01/22 06:35:37;;;;;;;23.13;11.77;;;-0.30;99.90;;;-1.70;100.00;98038.75;5048621;28;20580;-80
2023/01/22 06:38:04;;;;;;;15.23;9.57;;;-0.30;99.90;;;-1.70;100.00;98049.97;5044941;28;20480;-77
2023/01/22 06:40:30;;;;;;;19.73;10.75;;;-0.30;99.90;;;-1.69;100.00;98040.38;5042452;28;20410;-76
2023/01/22 06:42:56;;;;;;;21.67;11.70;;;-0.30;99.90;;;-1.69;100.00;98046.41;5044369;28;20462;-76
2023/01/22 06:45:22;;;;;;;20.42;10.82;;;-0.30;99.90;;;-1.69;100.00;98058.56;5040319;28;20395;-76
2023/01/22 06:47:48;;;;;;;19.00;10.90;;;-0.30;99.90;;;-1.69;100.00;98061.16;5051377;28;20947;-79
2023/01/22 06:50:15;;;;;;;16.90;9.77;;;-0.30;99.90;;;-1.68;100.00;98055.00;5053657;28;20409;-79
2023/01/22 06:52:41;;;;;;;15.23;8.90;;;-0.30;99.90;;;-1.68;100.00;98049.81;5053586;28;20497;-78
2023/01/22 06:55:09;;;;;;;15.70;8.82;;;-0.30;99.90;;;-1.70;100.00;98057.75;5048117;28;20511;-78
2023/01/22 06:57:35;;;;;;;13.38;7.78;;;-0.30;99.90;;;-1.66;100.00;98063.44;5042722;28;20415;-78
2023/01/22 07:00:01;;;;;;;15.13;8.70;;;-0.30;99.90;;;-1.66;100.00;98063.44;5042037;28;20494;-79
2023/01/22 07:02:26;;;;;;;26.00;12.32;;;-0.30;99.90;;;-1.67;100.00;98061.81;5042927;28;20405;-80
2023/01/22 07:04:52;;;;;;;17.92;10.48;;;-0.30;99.90;;;-1.66;100.00;98066.03;5035272;28;20443;-80
2023/01/22 07:07:18;;;;;;;19.52;10.18;;;-0.30;99.90;;;-1.66;100.00;98068.63;5031386;28;20448;-77
2023/01/22 07:09:44;;;;;;;16.85;9.43;;;-0.30;99.90;;;-1.67;100.00;98073.00;5032444;28;20407;-77
2023/01/22 07:12:12;;;;;;;18.92;9.57;;;-0.30;99.90;;;-1.68;100.00;98073.97;5036609;28;20414;-77
2023/01/22 07:14:37;;;;;;;20.13;10.18;;;-0.30;99.90;;;-1.66;100.00;98074.66;5038123;28;20423;-78
2023/01/22 07:17:04;;;;;;;18.50;9.40;;;-0.20;99.90;;;-1.65;100.00;98078.03;5032457;28;20395;-79
2023/01/22 07:19:29;;;;;;;21.02;10.18;;;-0.30;99.90;;;-1.66;100.00;98082.44;5033691;28;20403;-79
2023/01/22 07:21:55;;;;;;;25.52;12.65;;;-0.30;99.90;;;-1.65;100.00;98078.84;5032253;28;20773;-78
2023/01/22 07:24:22;;;;;;;26.23;13.27;;;-0.30;99.90;;;-1.66;100.00;98081.63;5032225;28;20404;-79
2023/01/22 07:26:48;;;;;;;29.88;13.85;;;-0.30;99.90;;;-1.66;100.00;98087.63;5032359;28;20418;-79
2023/01/22 07:29:15;;;;;;;20.77;11.50;;;-0.30;99.90;;;-1.65;100.00;98084.03;5032248;28;20489;-79
2023/01/22 07:31:42;;;;;;;18.75;10.55;;;-0.30;99.90;;;-1.64;100.00;98088.25;5032094;28;20502;-80
2023/01/22 07:34:07;;;;;;;19.98;10.05;;;-0.30;99.90;;;-1.63;100.00;98089.88;5030997;28;20422;-78
2023/01/22 07:36:33;;;;;;;15.82;8.98;;;-0.20;99.90;;;-1.61;100.00;98089.72;5030942;28;20429;-79
2023/01/22 07:39:02;;;;;;;16.48;9.00;;;-0.20;99.90;;;-1.60;100.00;98086.19;5031930;28;20407;-79
2023/01/22 07:41:29;;;;;;;17.30;9.07;;;-0.20;99.90;;;-1.58;100.00;98097.22;5032258;28;20449;-79
2023/01/22 07:43:56;;;;;;;17.60;9.07;;;-0.20;99.90;;;-1.57;100.00;98093.63;5050561;28;20420;-75
2023/01/22 07:46:24;;;;;;;14.15;8.30;;;-0.20;99.90;;;-1.55;100.00;98091.69;5052000;28;20397;-76
2023/01/22 07:48:49;;;;;;;19.23;10.20;;;-0.20;99.90;;;-1.53;100.00;98091.53;5052062;28;20413;-78
2023/01/22 07:51:16;;;;;;;18.38;9.75;;;-0.20;99.90;;;-1.51;100.00;98093.03;5050522;28;20500;-78
2023/01/22 07:53:42;;;;;;;15.35;8.80;;;-0.10;99.90;;;-1.48;100.00;98097.88;5042266;28;20417;-82
2023/01/22 07:56:08;;;;;;;17.40;8.97;;;-0.10;99.90;;;-1.45;100.00;98089.78;5042536;28;20757;-80
2023/01/22 07:58:34;;;;;;;14.68;7.95;;;-0.10;99.90;;;-1.40;100.00;98094.50;5042543;28;20463;-82
2023/01/22 08:01:04;;;;;;;17.52;9.65;;;0.00;99.90;;;-1.38;100.00;98095.16;5040648;28;20926;-81
2023/01/22 08:03:32;;;;;;;18.40;9.23;;;0.00;99.90;;;-1.37;100.00;98099.38;5052607;28;20401;-81
2023/01/22 08:05:59;;;;;;;20.73;10.15;;;0.00;99.90;;;-1.34;100.00;98097.28;5051840;28;20405;-80
2023/01/22 08:08:25;;;;;;;18.35;9.30;;;0.00;99.90;;;-1.32;100.00;98103.13;5040772;28;20822;-82
2023/01/22 08:10:51;;;;;;;17.33;8.82;;;0.00;99.90;;;-1.31;100.00;98101.34;5045334;28;20471;-77
2023/01/22 08:13:17;;;;;;;15.13;7.60;;;0.10;99.90;;;-1.30;100.00;98103.78;5050344;28;20402;-82
2023/01/22 08:15:44;;;;;;;15.50;8.05;;;0.10;99.90;;;-1.29;100.00;98110.63;5042409;28;20443;-80
2023/01/22 08:18:10;;;;;;;13.47;7.87;;;0.10;99.90;;;-1.28;100.00;98112.22;5048751;28;20555;-82
2023/01/22 08:20:38;;;;;;;19.73;9.60;;;0.10;99.90;;;-1.27;100.00;98116.44;5041170;28;20409;-82
2023/01/22 08:23:04;;;;;;;18.58;10.10;;;0.10;99.90;;;-1.27;100.00;98113.84;5047631;28;20470;-81
2023/01/22 08:25:29;;;;;;;24.48;12.00;;;0.10;99.90;;;-1.26;100.00;98118.06;5050181;28;20428;-83
2023/01/22 08:27:55;;;;;;;20.13;9.97;;;0.10;99.90;;;-1.24;100.00;98118.72;5051061;28;20501;-80
2023/01/22 08:30:22;;;;;;;23.90;11.65;;;0.10;99.90;;;-1.23;100.00;98125.56;5044634;28;20432;-82
2023/01/22 08:32:49;;;;;;;26.92;13.15;;;0.10;99.90;;;-1.22;100.00;98136.75;5051961;28;20401;-82
2023/01/22 08:35:15;;;;;;;25.63;12.97;;;0.10;99.90;;;-1.21;100.00;98138.41;5045195;28;20559;-83
2023/01/22 08:37:42;;;;;;;33.43;15.03;;;0.20;99.90;;;-1.19;100.00;98146.81;5039382;28;20495;-82
2023/01/22 08:40:10;;;;;;;34.40;15.00;;;0.20;99.90;;;-1.19;100.00;98146.81;5045348;28;20433;-77
2023/01/22 08:42:36;;;;;;;28.48;13.25;;;0.20;99.90;;;-1.18;100.00;98144.06;5046981;28;21163;-77
2023/01/22 08:45:02;;;;;;;33.15;15.35;;;0.20;99.90;;;-1.17;100.00;98144.88;5055252;28;20416;-79
2023/01/22 08:47:28;;;;;;;35.13;16.25;;;0.20;99.90;;;-1.15;100.00;98148.16;5061389;28;20415;-79
2023/01/22 08:49:54;;;;;;;34.35;15.15;;;0.20;99.90;;;-1.14;100.00;98154.97;5053829;28;20483;-78
2023/01/22 08:52:20;;;;;;;25.02;12.40;;;0.20;99.90;;;-1.12;100.00;98139.19;5062223;28;20392;-79
2023/01/22 08:54:47;;;;;;;38.08;17.77;;;0.20;99.90;;;-1.09;100.00;98144.91;5057902;28;20964;-78
2023/01/22 08:57:13;;;;;;;43.70;19.48;;;0.30;99.90;;;-1.08;100.00;98143.13;5060862;28;20465;-78
2023/01/22 08:59:39;;;;;;;37.10;17.75;;;0.30;99.90;;;-1.06;100.00;98144.59;5067260;28;20462;-78
2023/01/22 09:02:11;;;;;;;34.70;15.55;;;0.30;99.90;;;-1.04;100.00;98147.03;5067606;28;20424;-78
2023/01/22 09:04:37;;;;;;;30.27;14.13;;;0.30;99.90;;;-1.02;100.00;98145.09;5068014;28;20482;-78
2023/01/22 09:07:03;;;;;;;23.83;11.63;;;0.30;99.90;;;-1.01;100.00;98151.91;5067456;28;20845;-78
2023/01/22 09:09:29;;;;;;;29.35;13.00;;;0.40;99.90;;;-0.99;100.00;98142.19;5068490;28;20400;-77
2023/01/22 09:11:56;;;;;;;29.05;12.63;;;0.40;99.90;;;-0.97;100.00;98154.03;5069756;28;20404;-79
2023/01/22 09:14:22;;;;;;;29.33;14.00;;;0.40;99.90;;;-0.96;100.00;98150.44;5070222;28;20502;-76
2023/01/22 09:16:48;;;;;;;28.50;14.23;;;0.40;99.90;;;-0.93;100.00;98155.34;5070331;28;20409;-78
2023/01/22 09:19:14;;;;;;;26.13;12.02;;;0.40;99.90;;;-0.92;100.00;98153.56;5070441;28;20887;-78
2023/01/22 09:21:40;;;;;;;34.43;15.00;;;0.40;99.90;;;-0.91;100.00;98158.59;5070299;28;20557;-78
2023/01/22 09:24:07;;;;;;;31.35;14.20;;;0.40;99.90;;;-0.91;100.00;98153.41;5068574;28;20396;-78
2023/01/22 09:26:33;;;;;;;28.80;12.70;;;0.40;99.90;;;-0.89;100.00;98156.63;5070338;28;20449;-78
2023/01/22 09:29:03;;;;;;;33.03;14.00;;;0.50;99.90;;;-0.85;100.00;98155.34;5070190;28;20454;-77
2023/01/22 09:31:29;;;;;;;36.92;15.25;;;0.50;99.90;;;-0.83;100.00;98152.59;5070072;28;20408;-78
2023/01/22 09:33:54;;;;;;;38.97;16.15;;;0.50;99.90;;;-0.81;100.00;98155.84;5069615;28;20422;-78
2023/01/22 09:36:21;;;;;;;41.38;16.90;;;0.50;99.90;;;-0.81;100.00;98151.44;5070092;28;20495;-76
2023/01/22 09:38:47;;;;;;;47.33;17.98;;;0.50;99.90;;;-0.79;100.00;98154.72;5070008;28;20427;-78
2023/01/22 09:41:21;;;;;;;29.85;14.30;;;0.50;99.90;;;-0.76;100.00;98161.38;5070077;28;20406;-78
2023/01/22 09:43:52;;;;;;;32.05;13.32;;;0.60;99.90;;;-0.72;100.00;98161.88;5068675;28;20415;-75
2023/01/22 09:46:27;;;;;;;30.00;14.55;;;0.60;99.90;;;-0.67;100.00;98167.38;5070074;28;20396;-79
2023/01/22 09:48:59;;;;;;;30.20;13.00;;;0.60;99.90;;;-0.64;100.00;98161.88;5069782;28;20460;-78
2023/01/22 09:51:25;;;;;;;29.08;12.35;;;0.70;99.90;;;-0.61;100.00;98166.75;5070096;28;20400;-76
2023/01/22 09:53:56;;;;;;;32.57;13.37;;;0.70;99.90;;;-0.57;100.00;98163.66;5069576;28;20816;-76
2023/01/22 09:56:31;;;;;;;38.83;16.13;;;0.70;99.90;;;-0.55;100.00;98161.72;5070335;28;20410;-77
2023/01/22 09:58:58;;;;;;;33.90;15.00;;;0.80;99.90;;;-0.51;100.00;98176.03;5073830;28;20757;-76
2023/01/22 10:01:26;;;;;;;39.20;15.20;;;0.80;99.90;;;-0.47;100.00;98173.91;5053484;28;20393;-77
2023/01/22 10:03:58;;;;;;;32.25;13.95;;;0.80;99.90;;;-0.42;100.00;98171.63;5053364;28;20401;-78
2023/01/22 10:06:24;;;;;;;37.83;14.52;;;0.90;99.90;;;-0.42;100.00;98167.25;5046008;28;20431;-79
2023/01/22 10:09:02;;;;;;;38.58;15.48;;;0.90;99.90;;;-0.38;100.00;98175.56;5055579;28;20408;-77
2023/01/22 10:11:28;;;;;;;76.82;20.52;;;0.90;99.90;;;-0.36;100.00;98180.56;5045769;28;20668;-79